Time;durP1;ratioP1;P1;durP2;ratioP2;P2;SDS_P1;SDS_P2;PMS_P1;PMS_P2;Temp;Humidity;BMP_temperature;BMP_pressure;BME280_temperature;BME280_humidity;BME280_pressure;Samples;Min_cycle;Max_cycle;Signal;HPM_P1;HPM_P2
2022/04/29 00:01:33;;;;;;;9.57;7.10;;;;;;;14.94;45.79;98452.91;5071896;28;20272;-70
2022/04/29 00:03:59;;;;;;;12.17;8.77;;;;;;;14.91;45.75;98454.03;5072290;28;20269;-70
2022/04/29 00:06:26;;;;;;;13.33;7.77;;;;;;;14.85;45.89;98452.84;5072630;28;20220;-71
2022/04/29 00:08:51;;;;;;;7.27;6.53;;;;;;;14.73;46.29;98461.94;5070800;28;20736;-71
2022/04/29 00:11:17;;;;;;;7.73;6.97;;;;;;;14.55;47.01;98464.50;5071996;28;20444;-70
2022/04/29 00:13:42;;;;;;;9.87;6.70;;;;;;;14.62;46.81;98452.38;5071957;28;20279;-71
2022/04/29 00:16:08;;;;;;;11.63;8.03;;;;;;;14.70;46.79;98454.31;5072233;28;20174;-70
2022/04/29 00:18:33;;;;;;;8.73;7.50;;;;;;;14.71;46.31;98456.78;5070218;28;20198;-70
2022/04/29 00:20:59;;;;;;;8.43;6.80;;;;;;;14.70;46.35;98446.41;5071734;28;20269;-70
2022/04/29 00:23:24;;;;;;;9.90;7.67;;;;;;;14.71;45.99;98450.69;5072143;28;20178;-70
2022/04/29 00:25:50;;;;;;;10.30;7.00;;;;;;;14.60;46.52;98443.78;5072001;28;20677;-70
2022/04/29 00:28:15;;;;;;;10.40;7.17;;;;;;;14.55;46.18;98446.84;5072434;28;20693;-71
2022/04/29 00:30:41;;;;;;;12.60;7.73;;;;;;;14.50;46.97;98445.63;5072047;28;20182;-70
2022/04/29 00:33:06;;;;;;;11.03;7.70;;;;;;;14.62;46.16;98454.19;5071027;28;20624;-70
2022/04/29 00:35:32;;;;;;;8.37;7.43;;;;;;;14.55;46.46;98446.84;5070480;28;20182;-72
2022/04/29 00:37:58;;;;;;;8.47;7.53;;;;;;;14.55;46.71;98440.75;5071654;28;20710;-71
2022/04/29 00:40:28;;;;;;;9.40;7.33;;;;;;;14.48;46.69;98432.59;5069973;28;20217;-71
2022/04/29 00:42:54;;;;;;;7.50;6.70;;;;;;;14.44;46.89;98428.59;5065483;28;20179;-71
2022/04/29 00:45:21;;;;;;;8.30;7.37;;;;;;;14.37;46.74;98427.50;5071525;28;20524;-71
2022/04/29 00:47:47;;;;;;;10.27;7.50;;;;;;;14.31;47.15;98425.47;5071349;28;20452;-71
2022/04/29 00:50:15;;;;;;;8.87;6.87;;;;;;;14.24;46.96;98420.75;5078757;28;20762;-71
2022/04/29 00:52:45;;;;;;;9.17;7.00;;;;;;;14.28;47.01;98424.78;5063236;28;20957;-70
2022/04/29 00:55:11;;;;;;;7.77;7.07;;;;;;;14.33;47.26;98415.59;5071272;28;20433;-70
2022/04/29 00:57:41;;;;;;;12.60;8.43;;;;;;;14.26;47.29;98424.09;5070868;28;20839;-69
2022/04/29 01:00:09;;;;;;;9.23;7.63;;;;;;;14.25;47.15;98426.88;5071206;28;20433;-69
2022/04/29 01:02:41;;;;;;;9.37;7.63;;;;;;;14.27;47.15;98423.13;5068645;28;20429;-70
2022/04/29 01:05:12;;;;;;;11.03;8.00;;;;;;;14.16;47.39;98419.84;5071238;28;20428;-69
2022/04/29 01:07:38;;;;;;;10.60;8.33;;;;;;;14.23;47.09;98416.50;5070885;28;20452;-70
2022/04/29 01:10:06;;;;;;;9.60;7.67;;;;;;;14.16;46.77;98415.41;5070730;28;20444;-69
2022/04/29 01:12:35;;;;;;;8.93;8.03;;;;;;;14.18;46.96;98418.72;5069693;28;20464;-70
2022/04/29 01:15:13;;;;;;;11.20;7.60;;;;;;;14.21;47.08;98414.97;5069945;28;20911;-69
2022/04/29 01:17:39;;;;;;;10.03;8.10;;;;;;;14.22;47.20;98401.66;5070971;28;20788;-68
2022/04/29 01:20:07;;;;;;;10.90;9.10;;;;;;;14.23;47.07;98398.03;5070815;28;20553;-69
2022/04/29 01:22:33;;;;;;;12.03;8.67;;;;;;;14.27;47.09;98398.56;5070680;28;20930;-69
2022/04/29 01:24:59;;;;;;;10.93;8.63;;;;;;;14.19;47.09;98399.28;5071252;28;20421;-69
2022/04/29 01:27:24;;;;;;;9.03;8.13;;;;;;;14.14;47.36;98398.88;5070830;28;20205;-69
2022/04/29 01:29:58;;;;;;;10.70;8.67;;;;;;;14.05;47.34;98400.59;5070781;28;20568;-69
2022/04/29 01:32:26;;;;;;;8.63;7.73;;;;;;;14.02;47.00;98394.78;5076089;28;20186;-69
2022/04/29 01:34:52;;;;;;;8.80;8.00;;;;;;;13.97;47.37;98388.16;5070758;28;20520;-70
2022/04/29 01:37:17;;;;;;;9.17;8.27;;;;;;;13.95;47.49;98384.00;5070473;28;20459;-69
2022/04/29 01:39:43;;;;;;;9.13;8.10;;;;;;;13.90;47.97;98388.88;5078841;28;20213;-68
2022/04/29 01:42:08;;;;;;;21.70;8.20;;;;;;;13.88;47.75;98390.81;5062401;28;20269;-68
2022/04/29 01:44:34;;;;;;;11.43;8.87;;;;;;;13.82;47.88;98389.59;5070629;28;20190;-69
2022/04/29 01:46:59;;;;;;;8.77;7.93;;;;;;;13.71;48.14;98392.41;5070711;28;20613;-69
2022/04/29 01:49:25;;;;;;;10.53;8.40;;;;;;;13.47;48.84;98396.34;5071042;28;20372;-69
2022/04/29 01:51:50;;;;;;;12.80;8.30;;;;;;;13.53;48.79;98401.03;5071008;28;20217;-68
2022/04/29 01:54:15;;;;;;;10.93;8.60;;;;;;;13.70;48.30;98398.66;5070604;28;20712;-69
2022/04/29 01:56:41;;;;;;;10.50;8.77;;;;;;;13.69;48.29;98402.25;5087261;28;20220;-70
2022/04/29 01:59:07;;;;;;;9.80;8.80;;;;;;;13.72;48.07;98402.78;5070473;28;20190;-70
2022/04/29 02:01:34;;;;;;;9.30;8.30;;;;;;;13.70;48.06;98403.91;5079709;28;20178;-69
2022/04/29 02:04:00;;;;;;;9.37;8.10;;;;;;;13.55;48.43;98400.88;5073433;28;20533;-70
2022/04/29 02:06:26;;;;;;;9.23;8.23;;;;;;;13.66;48.43;98403.38;5056836;28;20506;-69
2022/04/29 02:08:52;;;;;;;12.10;9.20;;;;;;;13.68;48.13;98390.88;5040066;28;20428;-70
2022/04/29 02:11:17;;;;;;;10.30;8.80;;;;;;;13.69;48.39;98389.91;5072819;28;20220;-69
2022/04/29 02:13:46;;;;;;;9.77;8.23;;;;;;;13.62;48.53;98389.63;5074858;28;20593;-70
2022/04/29 02:16:13;;;;;;;11.00;8.33;;;;;;;13.47;48.76;98391.91;5082619;28;20508;-70
2022/04/29 02:18:38;;;;;;;12.33;8.23;;;;;;;13.59;48.66;98392.59;5074162;28;20539;-70
2022/04/29 02:21:04;;;;;;;12.53;7.90;;;;;;;13.48;49.17;98392.75;5074422;28;20436;-70
2022/04/29 02:23:29;;;;;;;8.73;7.77;;;;;;;13.43;49.10;98385.25;5074235;28;20216;-70
2022/04/29 02:25:57;;;;;;;8.80;7.90;;;;;;;13.46;48.64;98389.44;5074335;28;20170;-70
2022/04/29 02:28:23;;;;;;;14.30;9.00;;;;;;;13.45;48.62;98382.50;5069956;28;20207;-69
2022/04/29 02:30:48;;;;;;;8.77;7.97;;;;;;;13.44;48.86;98379.00;5075383;28;20466;-70
2022/04/29 02:33:14;;;;;;;11.83;8.40;;;;;;;13.39;48.71;98378.59;5076578;28;20546;-70
2022/04/29 02:35:40;;;;;;;11.43;8.30;;;;;;;13.34;49.06;98373.75;5073836;28;20278;-70
2022/04/29 02:38:05;;;;;;;9.73;8.83;;;;;;;13.39;48.90;98369.84;5074043;28;20205;-71
2022/04/29 02:40:31;;;;;;;9.87;8.83;;;;;;;13.41;48.94;98363.53;5080264;28;20210;-72
2022/04/29 02:42:56;;;;;;;15.50;9.60;;;;;;;13.30;49.10;98377.63;5080836;28;20265;-71
2022/04/29 02:45:22;;;;;;;9.20;8.30;;;;;;;13.32;48.88;98367.81;5073528;28;20178;-71
2022/04/29 02:47:47;;;;;;;10.13;9.00;;;;;;;13.34;48.89;98365.00;5078237;28;20263;-72
2022/04/29 02:50:12;;;;;;;10.13;8.50;;;;;;;13.33;49.12;98365.97;5078093;28;20549;-71
2022/04/29 02:52:38;;;;;;;11.33;9.00;;;;;;;13.39;48.48;98364.59;5074376;28;20178;-70
2022/04/29 02:55:04;;;;;;;22.20;17.30;;;;;;;13.43;48.74;98366.00;5072344;28;20653;-70
2022/04/29 02:57:29;;;;;;;21.97;17.23;;;;;;;13.28;49.10;98371.69;5069763;28;20204;-71
2022/04/29 02:59:55;;;;;;;14.40;12.13;;;;;;;13.26;48.87;98363.09;5069167;28;20198;-71
2022/04/29 03:02:20;;;;;;;13.13;9.60;;;;;;;13.27;49.00;98363.94;5078488;28;20184;-71
2022/04/29 03:04:46;;;;;;;10.50;9.40;;;;;;;13.13;49.19;98346.75;5071857;28;20239;-70
2022/04/29 03:07:11;;;;;;;13.23;9.00;;;;;;;13.18;49.04;98350.63;5073574;28;20232;-70
2022/04/29 03:09:37;;;;;;;9.67;8.77;;;;;;;13.17;48.47;98345.50;5073133;28;20194;-70
2022/04/29 03:12:02;;;;;;;10.40;8.60;;;;;;;13.05;48.93;98342.19;5064334;28;20261;-69
2022/04/29 03:14:28;;;;;;;9.60;8.60;;;;;;;13.08;49.47;98347.19;5072883;28;20265;-70
2022/04/29 03:16:53;;;;;;;17.33;9.10;;;;;;;13.11;49.12;98349.53;5071991;28;20182;-70
2022/04/29 03:19:19;;;;;;;10.23;8.60;;;;;;;13.12;49.42;98345.94;5071191;28;20202;-70
2022/04/29 03:21:45;;;;;;;11.83;10.20;;;;;;;13.07;48.97;98348.16;5073379;28;20265;-71
2022/04/29 03:24:10;;;;;;;16.63;12.00;;;;;;;13.04;49.04;98345.81;5073187;28;20235;-71
2022/04/29 03:26:36;;;;;;;13.80;10.10;;;;;;;13.06;49.27;98346.47;5069782;28;20182;-71
2022/04/29 03:29:02;;;;;;;10.97;8.97;;;;;;;12.93;49.95;98333.63;5072589;28;20194;-71
2022/04/29 03:31:27;;;;;;;12.00;8.93;;;;;;;12.94;49.42;98329.19;5068228;28;20252;-70
2022/04/29 03:33:53;;;;;;;12.97;9.03;;;;;;;12.83;49.73;98330.19;5077338;28;20420;-70
2022/04/29 03:36:18;;;;;;;11.23;8.70;;;;;;;12.83;49.81;98322.28;5057839;28;20356;-70
2022/04/29 03:38:44;;;;;;;11.90;9.30;;;;;;;12.87;50.07;98323.66;5073532;28;20201;-70
2022/04/29 03:41:09;;;;;;;11.20;9.50;;;;;;;12.84;49.75;98327.41;5072395;28;20179;-70
2022/04/29 03:43:35;;;;;;;11.83;9.73;;;;;;;12.90;49.79;98331.25;5082476;28;20262;-69
2022/04/29 03:46:01;;;;;;;12.00;9.63;;;;;;;12.79;49.63;98326.97;5092592;28;20180;-70
2022/04/29 03:48:26;;;;;;;12.83;10.40;;;;;;;12.76;49.49;98327.28;5088039;28;20212;-70
2022/04/29 03:50:52;;;;;;;12.30;9.53;;;;;;;12.78;49.64;98329.75;5072011;28;20178;-70
2022/04/29 03:53:22;;;;;;;11.27;9.30;;;;;;;12.56;50.09;98332.50;5088449;28;20547;-71
2022/04/29 03:55:47;;;;;;;12.90;9.67;;;;;;;12.58;50.31;98335.84;5091901;28;20174;-71
2022/04/29 03:58:12;;;;;;;12.60;10.00;;;;;;;12.62;50.43;98335.56;5083782;28;20424;-71
2022/04/29 04:00:38;;;;;;;11.87;10.20;;;;;;;12.63;50.39;98331.97;5089429;28;20201;-72
2022/04/29 04:03:05;;;;;;;12.17;9.60;;;;;;;12.57;50.15;98333.34;5086754;28;20651;-71
2022/04/29 04:05:31;;;;;;;15.13;10.30;;;;;;;12.66;50.31;98331.72;5089296;28;20687;-72
2022/04/29 04:07:56;;;;;;;16.60;11.03;;;;;;;12.70;50.39;98328.66;5070577;28;20819;-71
2022/04/29 04:10:22;;;;;;;13.00;10.07;;;;;;;12.61;50.73;98326.84;5091180;28;20432;-73
2022/04/29 04:12:49;;;;;;;12.97;9.93;;;;;;;12.65;50.48;98333.50;5091895;28;20178;-71
2022/04/29 04:15:16;;;;;;;14.57;10.40;;;;;;;12.73;50.46;98338.88;5079008;28;20289;-72
2022/04/29 04:17:42;;;;;;;12.90;9.50;;;;;;;12.74;50.17;98340.53;5080365;28;20444;-71
2022/04/29 04:20:10;;;;;;;12.40;10.03;;;;;;;12.75;50.17;98330.88;5079987;28;20501;-72
2022/04/29 04:22:35;;;;;;;12.60;10.20;;;;;;;12.66;49.83;98327.25;5084448;28;20535;-70
2022/04/29 04:25:06;;;;;;;10.83;8.50;;;;;;;12.70;50.27;98333.91;5081087;28;20503;-71
2022/04/29 04:27:32;;;;;;;12.57;10.10;;;;;;;12.75;50.24;98344.03;5087616;28;20195;-70
2022/04/29 04:30:01;;;;;;;15.93;10.07;;;;;;;12.75;50.29;98344.84;5080315;28;20436;-70
2022/04/29 04:32:27;;;;;;;14.80;9.77;;;;;;;12.70;50.41;98360.22;5077527;28;20183;-71
2022/04/29 04:34:57;;;;;;;13.90;9.23;;;;;;;12.63;50.28;98361.72;5085219;28;20910;-72
2022/04/29 04:37:27;;;;;;;12.67;10.10;;;;;;;12.58;50.88;98351.63;5073721;28;20456;-71
2022/04/29 04:39:54;;;;;;;14.20;10.50;;;;;;;12.56;50.71;98369.31;5087943;28;20848;-71
2022/04/29 04:42:20;;;;;;;14.90;10.23;;;;;;;12.54;51.31;98380.94;5088433;28;20438;-70
2022/04/29 04:44:47;;;;;;;14.70;10.57;;;;;;;12.69;50.50;98366.44;5092043;28;20412;-71
2022/04/29 04:47:12;;;;;;;14.33;10.00;;;;;;;12.75;50.50;98363.25;5091219;28;20451;-71
2022/04/29 04:49:38;;;;;;;13.67;10.87;;;;;;;12.83;50.63;98367.00;5077664;28;20489;-72
2022/04/29 04:52:04;;;;;;;26.90;10.67;;;;;;;12.88;50.83;98364.78;5090050;28;20169;-72
2022/04/29 04:54:29;;;;;;;16.00;10.40;;;;;;;12.88;50.92;98363.00;5090634;28;20189;-72
2022/04/29 04:56:54;;;;;;;12.30;10.17;;;;;;;12.87;51.12;98357.84;5084408;28;20189;-71
2022/04/29 04:59:20;;;;;;;12.07;9.57;;;;;;;12.82;51.43;98370.59;5080507;28;20355;-71
2022/04/29 05:01:45;;;;;;;13.67;9.83;;;;;;;12.82;51.99;98367.97;5088185;28;20193;-71
2022/04/29 05:04:11;;;;;;;11.90;10.20;;;;;;;12.96;51.25;98364.94;5091118;28;20253;-71
2022/04/29 05:06:37;;;;;;;12.47;10.10;;;;;;;13.05;50.92;98364.09;5072481;28;20216;-72
2022/04/29 05:09:06;;;;;;;16.20;10.83;;;;;;;13.02;51.97;98360.91;5081362;28;20200;-72
2022/04/29 05:11:32;;;;;;;13.70;10.90;;;;;;;13.10;51.41;98362.84;5082522;28;20174;-74
2022/04/29 05:13:57;;;;;;;16.10;9.90;;;;;;;13.14;51.69;98359.78;5086504;28;22159;-72
2022/04/29 05:16:23;;;;;;;11.03;9.40;;;;;;;13.23;51.89;98366.03;5078583;28;20173;-72
2022/04/29 05:18:49;;;;;;;15.43;10.30;;;;;;;13.34;51.69;98368.50;5089264;28;20209;-71
2022/04/29 05:21:14;;;;;;;13.47;10.60;;;;;;;13.36;51.76;98371.78;5085815;28;20409;-69
2022/04/29 05:23:40;;;;;;;13.90;10.13;;;;;;;13.39;52.07;98373.34;5089094;28;20272;-72
2022/04/29 05:26:06;;;;;;;17.70;11.13;;;;;;;13.45;52.02;98375.41;5077882;28;20174;-70
2022/04/29 05:28:31;;;;;;;19.13;10.77;;;;;;;13.54;51.77;98379.00;5090147;28;20458;-70
2022/04/29 05:30:57;;;;;;;12.33;11.03;;;;;;;13.47;51.72;98383.19;5088984;28;20257;-69
2022/04/29 05:33:23;;;;;;;16.10;11.30;;;;;;;13.56;51.96;98394.66;5080803;28;20595;-70
2022/04/29 05:35:49;;;;;;;20.17;11.27;;;;;;;13.70;51.62;98382.84;5081570;28;20197;-70
2022/04/29 05:38:14;;;;;;;15.50;11.10;;;;;;;13.78;51.72;98381.16;5065558;28;20420;-70
2022/04/29 05:43:24;;;;;;;12.60;10.90;;;;;;;13.92;51.04;98381.66;5089333;28;20201;-70
2022/04/29 05:45:49;;;;;;;19.47;11.00;;;;;;;13.94;51.01;98382.31;5082287;28;20420;-70
2022/04/29 05:48:14;;;;;;;14.67;10.50;;;;;;;13.92;50.87;98382.47;5089870;28;20334;-71
2022/04/29 05:50:41;;;;;;;18.00;11.20;;;;;;;14.01;50.68;98387.84;5090033;28;20204;-70
2022/04/29 05:53:06;;;;;;;12.17;10.90;;;;;;;14.19;49.94;98390.53;5090956;28;20201;-70
2022/04/29 05:55:31;;;;;;;14.27;11.43;;;;;;;14.30;49.97;98385.09;5090369;28;21122;-70
2022/04/29 05:57:57;;;;;;;11.93;10.60;;;;;;;14.45;49.68;98382.78;5079569;28;20280;-71
2022/04/29 06:00:22;;;;;;;19.87;11.40;;;;;;;14.50;48.97;98377.88;5083475;28;20197;-70
2022/04/29 06:02:48;;;;;;;14.00;11.70;;;;;;;14.63;48.27;98381.94;5090812;28;20528;-70
2022/04/29 06:05:13;;;;;;;11.80;10.60;;;;;;;14.82;46.58;98381.88;5090617;28;20637;-71
2022/04/29 06:07:41;;;;;;;24.13;11.73;;;;;;;14.98;45.30;98383.00;5090534;28;20614;-70
2022/04/29 06:10:08;;;;;;;11.60;10.40;;;;;;;15.19;44.31;98375.56;5085822;28;20281;-70
2022/04/29 06:12:38;;;;;;;15.40;10.47;;;;;;;15.43;44.14;98384.66;5090331;28;20540;-69
2022/04/29 06:15:04;;;;;;;21.20;10.50;;;;;;;15.59;43.27;98380.47;5089396;28;20412;-70
2022/04/29 06:17:29;;;;;;;15.23;11.27;;;;;;;15.78;42.54;98385.53;5090195;28;20431;-70
2022/04/29 06:19:55;;;;;;;10.77;9.67;;;;;;;15.93;42.90;98388.47;5079356;28;20281;-70
2022/04/29 06:22:20;;;;;;;17.43;10.80;;;;;;;16.04;42.87;98379.41;5073564;28;20206;-70
2022/04/29 06:24:46;;;;;;;14.87;11.90;;;;;;;16.13;42.39;98389.03;5090584;28;20273;-70
2022/04/29 06:27:12;;;;;;;14.90;10.97;;;;;;;16.15;42.16;98380.94;5090438;28;20251;-70
2022/04/29 06:29:37;;;;;;;27.70;10.20;;;;;;;16.23;41.73;98390.75;5083764;28;20200;-70
2022/04/29 06:32:03;;;;;;;15.73;10.97;;;;;;;16.41;41.91;98390.63;5085214;28;20424;-70
2022/04/29 06:34:28;;;;;;;13.20;9.83;;;;;;;16.63;41.80;98388.38;5090076;28;20185;-70
2022/04/29 06:36:54;;;;;;;11.63;9.90;;;;;;;16.92;41.30;98387.09;5073483;28;20272;-70
2022/04/29 06:39:19;;;;;;;20.30;10.70;;;;;;;17.19;41.20;98384.16;5085361;28;20195;-71
2022/04/29 06:41:45;;;;;;;12.90;10.40;;;;;;;17.39;39.58;98383.00;5090464;28;20196;-70
2022/04/29 06:44:10;;;;;;;15.10;10.50;;;;;;;17.58;39.89;98384.44;5090451;28;20239;-70
2022/04/29 06:46:36;;;;;;;13.60;9.57;;;;;;;17.82;39.45;98399.47;5090633;28;20182;-70
2022/04/29 06:49:01;;;;;;;11.87;9.77;;;;;;;17.98;39.23;98397.78;5092933;28;20347;-69
2022/04/29 06:51:26;;;;;;;11.63;9.33;;;;;;;18.20;38.56;98396.22;5093797;28;20543;-70
2022/04/29 06:53:52;;;;;;;10.80;9.50;;;;;;;18.24;36.87;98387.75;5088877;28;20269;-70
2022/04/29 06:56:18;;;;;;;13.33;8.90;;;;;;;18.42;37.48;98384.00;5085305;28;20211;-70
2022/04/29 06:58:43;;;;;;;14.60;10.00;;;;;;;18.53;35.17;98383.59;5085809;28;20608;-70
2022/04/29 07:01:09;;;;;;;14.90;10.27;;;;;;;18.53;34.75;98388.91;5092225;28;20174;-70
2022/04/29 07:03:36;;;;;;;14.60;10.13;;;;;;;18.54;34.17;98379.94;5093625;28;20231;-70
2022/04/29 07:06:02;;;;;;;13.40;8.77;;;;;;;18.57;33.85;98379.59;5093792;28;20223;-69
2022/04/29 07:08:31;;;;;;;11.77;8.97;;;;;;;18.60;32.91;98373.13;5092005;28;20466;-70
2022/04/29 07:10:56;;;;;;;11.90;9.30;;;;;;;18.44;32.98;98374.03;5087246;28;20430;-70
2022/04/29 07:13:22;;;;;;;11.97;8.40;;;;;;;18.55;33.20;98368.34;5093282;28;20420;-70
2022/04/29 07:15:48;;;;;;;13.83;9.63;;;;;;;18.67;33.19;98366.13;5093097;28;20205;-70
2022/04/29 07:18:14;;;;;;;11.60;9.10;;;;;;;18.66;32.58;98363.63;5093697;28;20545;-70
2022/04/29 07:20:40;;;;;;;11.17;8.43;;;;;;;18.69;33.10;98364.13;5089340;28;20437;-69
2022/04/29 07:23:06;;;;;;;13.37;8.70;;;;;;;18.65;33.12;98362.00;5084026;28;20420;-69
2022/04/29 07:25:31;;;;;;;14.20;8.80;;;;;;;18.56;33.28;98356.72;5092867;28;20572;-70
2022/04/29 07:27:57;;;;;;;18.00;10.17;;;;;;;18.44;33.54;98358.13;5088612;28;20203;-69
2022/04/29 07:30:22;;;;;;;13.67;8.60;;;;;;;18.61;34.10;98353.53;5089803;28;20661;-69
2022/04/29 07:32:48;;;;;;;12.87;9.00;;;;;;;18.75;34.23;98348.47;5088125;28;20178;-69
2022/04/29 07:43:27;;;;;;;13.13;9.07;;;;;;;19.23;33.11;98342.97;5088964;28;20416;-69
2022/04/29 07:45:52;;;;;;;16.57;9.07;;;;;;;19.36;33.41;98340.53;5093372;28;20420;-69
2022/04/29 07:48:18;;;;;;;13.80;9.60;;;;;;;19.47;32.63;98342.72;5091631;28;20675;-70
2022/04/29 07:50:44;;;;;;;11.90;8.50;;;;;;;19.59;33.29;98348.44;5084053;28;20201;-70
2022/04/29 07:53:10;;;;;;;9.67;8.70;;;;;;;19.71;33.00;98346.13;5085601;28;20424;-69
2022/04/29 07:55:36;;;;;;;13.63;8.97;;;;;;;19.69;32.83;98342.03;5088660;28;20573;-69
2022/04/29 07:58:05;;;;;;;18.03;9.60;;;;;;;19.92;32.75;98347.25;5086628;28;20412;-69
2022/04/29 08:00:31;;;;;;;8.60;7.70;;;;;;;20.09;32.82;98339.91;5089855;28;20531;-68
2022/04/29 08:03:01;;;;;;;9.70;7.57;;;;;;;20.16;32.48;98337.34;5087289;28;20422;-70
2022/04/29 08:05:30;;;;;;;10.43;9.17;;;;;;;19.97;31.87;98344.88;5091997;28;20420;-70
2022/04/29 08:08:00;;;;;;;10.60;8.80;;;;;;;19.82;31.25;98344.03;5074721;28;20866;-69
2022/04/29 08:10:29;;;;;;;12.00;8.30;;;;;;;19.76;31.76;98343.75;5088007;28;20962;-69
2022/04/29 08:12:59;;;;;;;12.47;8.00;;;;;;;19.81;31.45;98348.53;5092807;28;20424;-70
2022/04/29 08:15:26;;;;;;;17.13;9.80;;;;;;;19.82;33.70;98346.69;5092273;28;20897;-69
2022/04/29 08:17:51;;;;;;;16.70;9.60;;;;;;;19.86;34.34;98354.13;5092634;28;20442;-69
2022/04/29 08:20:16;;;;;;;15.17;9.73;;;;;;;20.02;34.12;98342.50;5091744;28;20863;-69
2022/04/29 08:22:42;;;;;;;14.37;9.67;;;;;;;20.06;34.34;98343.75;5087425;28;20242;-69
2022/04/29 08:25:08;;;;;;;11.77;9.10;;;;;;;20.31;34.65;98339.97;5093108;28;20182;-69
2022/04/29 08:27:34;;;;;;;12.37;8.10;;;;;;;20.57;34.30;98344.72;5075736;28;20286;-70
2022/04/29 08:29:59;;;;;;;14.87;8.60;;;;;;;20.84;33.53;98350.34;5086625;28;20471;-68
2022/04/29 08:32:25;;;;;;;12.27;8.23;;;;;;;21.21;32.31;98353.75;5086703;28;20712;-70
2022/04/29 08:34:51;;;;;;;12.07;9.20;;;;;;;21.59;32.43;98345.44;5092235;28;20185;-70
2022/04/29 08:37:18;;;;;;;14.30;8.33;;;;;;;21.83;31.86;98348.66;5091474;28;20216;-70
2022/04/29 08:39:44;;;;;;;15.63;8.90;;;;;;;22.07;30.26;98343.81;5087366;28;20280;-69
2022/04/29 08:42:10;;;;;;;11.70;8.00;;;;;;;22.44;29.74;98344.41;5092019;28;20446;-70
2022/04/29 08:44:36;;;;;;;9.83;8.40;;;;;;;22.72;29.91;98338.09;5091671;28;20461;-69
2022/04/29 08:47:04;;;;;;;8.20;7.20;;;;;;;23.00;29.03;98339.78;5090421;28;20412;-69
2022/04/29 08:49:30;;;;;;;9.90;7.47;;;;;;;23.20;28.07;98330.94;5081446;28;20831;-69
2022/04/29 08:51:56;;;;;;;10.93;8.03;;;;;;;23.51;27.99;98332.97;5090755;28;20540;-69
2022/04/29 08:59:57;;;;;;;7.30;6.57;;;;;;;23.87;24.43;98330.81;5090219;28;20427;-69
2022/04/29 09:02:22;;;;;;;10.87;6.70;;;;;;;23.49;24.80;98328.84;5091511;28;20577;-69
2022/04/29 09:04:49;;;;;;;9.30;6.73;;;;;;;23.43;25.08;98322.50;5091679;28;20435;-69
2022/04/29 09:07:15;;;;;;;7.13;5.77;;;;;;;23.52;25.56;98317.75;5077875;28;20225;-69
2022/04/29 09:09:41;;;;;;;8.60;5.90;;;;;;;23.70;23.04;98315.22;5065479;28;20452;-69
2022/04/29 09:12:15;;;;;;;11.60;6.47;;;;;;;23.03;24.53;98320.66;5078472;28;20967;-69
2022/04/29 09:14:40;;;;;;;7.33;5.70;;;;;;;23.26;23.93;98306.06;5091139;28;20201;-69
2022/04/29 09:17:05;;;;;;;6.23;5.60;;;;;;;23.17;24.01;98314.28;5091685;28;20457;-69
2022/04/29 09:19:32;;;;;;;8.43;4.83;;;;;;;23.71;23.42;98303.47;5091119;28;20237;-68
2022/04/29 09:22:06;;;;;;;7.23;5.90;;;;;;;23.60;23.29;98310.31;5086533;28;20612;-70
2022/04/29 09:24:32;;;;;;;6.63;5.30;;;;;;;23.62;23.87;98302.06;5091423;28;20510;-69
2022/04/29 09:27:02;;;;;;;6.93;5.60;;;;;;;23.58;23.59;98301.69;5091343;28;20852;-68
2022/04/29 09:29:30;;;;;;;6.70;5.23;;;;;;;23.87;23.69;98294.19;5091113;28;20201;-70
2022/04/29 09:31:59;;;;;;;7.53;5.63;;;;;;;23.63;22.86;98311.75;5086151;28;20432;-69
2022/04/29 09:34:44;;;;;;;7.90;6.20;;;;;;;23.86;23.28;98299.72;5091016;28;20411;-69
2022/04/29 09:37:26;;;;;;;5.53;5.03;;;;;;;24.00;24.00;98295.19;5082561;28;20420;-70
2022/04/29 09:39:53;;;;;;;7.80;5.70;;;;;;;23.56;23.03;98300.25;5085659;28;20888;-68
2022/04/29 09:42:18;;;;;;;6.53;5.90;;;;;;;23.42;23.86;98292.25;5091141;28;20423;-68
2022/04/29 09:44:45;;;;;;;6.07;5.47;;;;;;;23.42;24.01;98294.09;5084848;28;20421;-69
2022/04/29 09:47:20;;;;;;;8.77;6.07;;;;;;;23.33;23.88;98288.13;5070856;28;20247;-70
2022/04/29 09:49:58;;;;;;;5.57;5.07;;;;;;;23.42;24.39;98281.56;5083660;28;20441;-70
2022/04/29 09:52:25;;;;;;;11.30;6.20;;;;;;;23.48;23.73;98285.25;5089827;28;20452;-70
2022/04/29 09:54:50;;;;;;;8.07;5.67;;;;;;;23.40;24.82;98282.78;5086243;28;20424;-68
2022/04/29 09:57:18;;;;;;;6.50;5.30;;;;;;;23.30;25.05;98275.22;5087453;28;20469;-69
2022/04/29 10:00:05;;;;;;;8.80;5.10;;;;;;;22.95;24.58;98280.75;5089776;28;20215;-70
2022/04/29 10:02:31;;;;;;;7.57;6.00;;;;;;;22.86;25.31;98282.81;5077363;28;20837;-69
2022/04/29 10:04:56;;;;;;;12.43;8.50;;;;;;;23.05;24.63;98275.84;5087190;28;20426;-69
2022/04/29 10:07:24;;;;;;;5.70;5.10;;;;;;;23.38;24.08;98269.63;5090932;28;20615;-69
2022/04/29 10:09:54;;;;;;;7.67;6.37;;;;;;;23.34;24.39;98273.75;5086678;28;20255;-69
2022/04/29 10:12:23;;;;;;;6.30;5.30;;;;;;;23.24;24.19;98263.50;5090523;28;20416;-69
2022/04/29 10:14:53;;;;;;;6.80;5.07;;;;;;;23.14;23.60;98263.88;5091547;28;20919;-70
2022/04/29 10:22:50;;;;;;;11.00;4.90;;;;;;;23.28;24.22;98250.53;5086309;28;20449;-70
2022/04/29 10:25:17;;;;;;;6.43;4.30;;;;;;;23.41;23.23;98247.81;5094066;28;20422;-69
2022/04/29 10:27:43;;;;;;;4.20;3.80;;;;;;;23.68;23.83;98246.91;5092077;28;20460;-69
2022/04/29 10:30:09;;;;;;;4.73;4.30;;;;;;;23.68;23.44;98247.75;5076682;28;20442;-68
2022/04/29 10:33:01;;;;;;;4.00;3.70;;;;;;;23.68;23.30;98246.91;5092195;28;20181;-68
2022/04/29 10:35:49;;;;;;;4.43;3.93;;;;;;;24.02;23.51;98248.44;5096495;28;20414;-68
2022/04/29 10:38:18;;;;;;;3.27;3.03;;;;;;;24.02;23.19;98247.59;5081389;28;20420;-69
2022/04/29 10:40:45;;;;;;;9.40;3.93;;;;;;;24.02;22.20;98250.28;5085032;28;20441;-69
2022/04/29 10:43:13;;;;;;;3.67;3.37;;;;;;;23.75;22.40;98248.53;5094724;28;20945;-69
2022/04/29 10:46:03;;;;;;;4.80;3.77;;;;;;;23.94;22.22;98245.97;5098023;28;20997;-69
2022/04/29 10:48:36;;;;;;;4.13;3.67;;;;;;;24.29;23.04;98234.06;5083923;28;20501;-70
2022/04/29 10:51:18;;;;;;;4.03;3.20;;;;;;;24.70;22.60;98232.75;5069663;28;20448;-70
2022/04/29 10:53:48;;;;;;;3.80;3.33;;;;;;;24.48;21.64;98240.31;5080227;28;20437;-70
2022/04/29 10:56:32;;;;;;;5.00;4.50;;;;;;;24.56;21.16;98226.66;5098272;28;20426;-70
2022/04/29 10:59:03;;;;;;;5.33;3.40;;;;;;;24.78;21.39;98220.94;5096330;28;20535;-70
2022/04/29 11:01:33;;;;;;;4.17;2.90;;;;;;;25.05;21.13;98221.50;5075096;28;20417;-70
2022/04/29 11:03:59;;;;;;;4.03;3.57;;;;;;;25.45;20.69;98228.34;5065060;28;21045;-69
2022/04/29 11:06:37;;;;;;;4.03;3.50;;;;;;;25.77;20.46;98220.09;5074369;28;20503;-69
2022/04/29 11:09:26;;;;;;;4.13;3.77;;;;;;;25.67;20.45;98219.84;5073379;28;20273;-71
2022/04/29 11:11:52;;;;;;;5.50;3.77;;;;;;;25.68;20.43;98219.59;5081616;28;20423;-70
2022/04/29 11:14:17;;;;;;;5.00;3.57;;;;;;;25.55;21.13;98233.19;5094812;28;20481;-69
2022/04/29 11:16:57;;;;;;;5.33;3.90;;;;;;;25.27;19.78;98226.44;5095752;28;20483;-69
2022/04/29 11:19:28;;;;;;;11.77;3.83;;;;;;;25.28;20.60;98233.44;5084397;28;20201;-69
2022/04/29 11:24:53;;;;;;;4.27;3.60;;;;;;;24.91;20.45;98218.13;5077782;28;20424;-68
2022/04/29 11:27:25;;;;;;;4.90;3.27;;;;;;;24.68;21.09;98216.88;5075224;28;20501;-68
2022/04/29 11:29:52;;;;;;;3.77;3.37;;;;;;;24.60;21.48;98217.13;5094229;28;20477;-70
2022/04/29 11:32:25;;;;;;;8.20;3.70;;;;;;;24.48;20.53;98210.84;5087869;28;20459;-70
2022/04/29 11:34:52;;;;;;;4.57;3.57;;;;;;;24.59;20.61;98204.78;5092143;28;20423;-70
2022/04/29 11:37:24;;;;;;;4.27;3.87;;;;;;;24.54;20.90;98207.31;5093010;28;20427;-68
2022/04/29 11:39:58;;;;;;;4.00;3.60;;;;;;;24.49;20.58;98207.97;5081674;28;20444;-68
2022/04/29 11:42:23;;;;;;;8.80;3.67;;;;;;;24.28;20.20;98206.47;5092485;28;20449;-68
2022/04/29 11:44:49;;;;;;;3.60;3.30;;;;;;;24.01;21.42;98203.13;5092991;28;20503;-69
2022/04/29 11:47:16;;;;;;;7.50;3.90;;;;;;;23.66;21.32;98198.97;5085648;28;20232;-67
2022/04/29 11:49:43;;;;;;;4.20;3.77;;;;;;;23.93;21.67;98201.50;5083755;28;20428;-68
2022/04/29 11:52:21;;;;;;;4.07;3.70;;;;;;;24.21;22.16;98200.31;5094401;28;20416;-68